sensor_id;sensor_type;location;lat;lon;timestamp;pressure;altitude;pressure_sealevel;temperature;humidity
65280;BME280;51878;55.748;48.742;2024-03-08T00:04:36;98592.09;;;-5.35;79.42
65280;BME280;51878;55.748;48.742;2024-03-08T00:09:39;98543.84;;;-5.63;77.70
65280;BME280;51878;55.748;48.742;2024-03-08T00:14:41;98583.53;;;-5.39;77.07
65280;BME280;51878;55.748;48.742;2024-03-08T00:19:43;98571.31;;;-5.40;76.46
65280;BME280;51878;55.748;48.742;2024-03-08T00:24:45;98579.09;;;-5.38;76.50
65280;BME280;51878;55.748;48.742;2024-03-08T00:29:48;98525.19;;;-5.73;76.20
65280;BME280;51878;55.748;48.742;2024-03-08T00:34:50;98555.56;;;-5.54;76.17
65280;BME280;51878;55.748;48.742;2024-03-08T00:39:56;98558.94;;;-5.52;77.21
65280;BME280;51878;55.748;48.742;2024-03-08T00:44:58;98519.59;;;-5.68;76.98
65280;BME280;51878;55.748;48.742;2024-03-08T00:50:00;98539.75;;;-5.67;76.96
65280;BME280;51878;55.748;48.742;2024-03-08T00:55:11;98530.88;;;-5.66;77.36
65280;BME280;51878;55.748;48.742;2024-03-08T01:00:14;98495.53;;;-5.89;77.52
65280;BME280;51878;55.748;48.742;2024-03-08T01:05:16;98488.50;;;-6.01;77.97
65280;BME280;51878;55.748;48.742;2024-03-08T01:10:18;98479.22;;;-6.07;78.26
65280;BME280;51878;55.748;48.742;2024-03-08T01:15:21;98518.84;;;-5.83;78.45
65280;BME280;51878;55.748;48.742;2024-03-08T01:20:23;98459.50;;;-6.14;78.84
65280;BME280;51878;55.748;48.742;2024-03-08T01:25:25;98489.13;;;-5.98;79.00
65280;BME280;51878;55.748;48.742;2024-03-08T01:30:27;98485.88;;;-6.01;78.94
65280;BME280;51878;55.748;48.742;2024-03-08T01:35:30;98486.91;;;-6.04;78.59
65280;BME280;51878;55.748;48.742;2024-03-08T01:40:32;98436.72;;;-6.28;78.41
65280;BME280;51878;55.748;48.742;2024-03-08T01:45:34;98437.56;;;-6.28;77.11
65280;BME280;51878;55.748;48.742;2024-03-08T01:50:37;98394.63;;;-6.55;77.01
65280;BME280;51878;55.748;48.742;2024-03-08T01:55:40;98437.66;;;-6.29;77.80
65280;BME280;51878;55.748;48.742;2024-03-08T02:00:44;98429.56;;;-6.39;78.11
65280;BME280;51878;55.748;48.742;2024-03-08T02:05:48;98352.47;;;-6.94;79.39
65280;BME280;51878;55.748;48.742;2024-03-08T02:10:51;98409.50;;;-6.54;81.30
65280;BME280;51878;55.748;48.742;2024-03-08T02:15:55;98414.97;;;-6.57;82.10
65280;BME280;51878;55.748;48.742;2024-03-08T02:21:18;98394.00;;;-6.72;83.69
65280;BME280;51878;55.748;48.742;2024-03-08T02:26:20;98380.41;;;-6.66;83.79
65280;BME280;51878;55.748;48.742;2024-03-08T02:31:23;98376.59;;;-6.61;84.12
65280;BME280;51878;55.748;48.742;2024-03-08T02:36:25;98423.97;;;-6.34;83.56
65280;BME280;51878;55.748;48.742;2024-03-08T02:41:27;98380.84;;;-6.59;83.82
65280;BME280;51878;55.748;48.742;2024-03-08T02:46:30;98379.47;;;-6.65;83.54
65280;BME280;51878;55.748;48.742;2024-03-08T02:51:32;98281.34;;;-7.19;84.18
65280;BME280;51878;55.748;48.742;2024-03-08T02:56:37;98367.44;;;-6.69;83.29
65280;BME280;51878;55.748;48.742;2024-03-08T03:01:39;98408.03;;;-6.46;83.87
65280;BME280;51878;55.748;48.742;2024-03-08T03:06:43;98330.25;;;-6.90;83.90
65280;BME280;51878;55.748;48.742;2024-03-08T03:11:45;98384.81;;;-6.53;84.30
65280;BME280;51878;55.748;48.742;2024-03-08T03:16:47;98339.31;;;-6.81;83.73
65280;BME280;51878;55.748;48.742;2024-03-08T03:21:50;98312.94;;;-7.07;84.29
65280;BME280;51878;55.748;48.742;2024-03-08T03:26:53;98363.03;;;-6.81;86.02
65280;BME280;51878;55.748;48.742;2024-03-08T03:31:56;98345.00;;;-6.87;86.80
65280;BME280;51878;55.748;48.742;2024-03-08T03:36:58;98379.34;;;-6.76;87.39
65280;BME280;51878;55.748;48.742;2024-03-08T03:42:02;98349.31;;;-6.86;87.52
65280;BME280;51878;55.748;48.742;2024-03-08T03:47:04;98313.69;;;-7.04;87.84
65280;BME280;51878;55.748;48.742;2024-03-08T03:52:08;98340.47;;;-6.85;88.22
65280;BME280;51878;55.748;48.742;2024-03-08T03:57:10;98249.44;;;-7.40;87.87
65280;BME280;51878;55.748;48.742;2024-03-08T04:02:14;98294.00;;;-7.12;88.75
65280;BME280;51878;55.748;48.742;2024-03-08T04:07:16;98342.88;;;-6.82;88.39
65280;BME280;51878;55.748;48.742;2024-03-08T04:12:19;98276.63;;;-7.14;87.97
65280;BME280;51878;55.748;48.742;2024-03-08T04:17:22;98336.22;;;-6.75;88.75
65280;BME280;51878;55.748;48.742;2024-03-08T04:22:28;98212.16;;;-7.47;88.14
65280;BME280;51878;55.748;48.742;2024-03-08T04:27:31;98332.75;;;-6.62;86.28
65280;BME280;51878;55.748;48.742;2024-03-08T04:32:34;98315.56;;;-6.55;85.83
65280;BME280;51878;55.748;48.742;2024-03-08T04:37:37;98271.56;;;-6.79;85.46
65280;BME280;51878;55.748;48.742;2024-03-08T04:42:40;98315.78;;;-6.46;87.42
65280;BME280;51878;55.748;48.742;2024-03-08T04:47:44;98256.66;;;-6.67;88.56
65280;BME280;51878;55.748;48.742;2024-03-08T04:52:47;98294.69;;;-6.46;86.98
65280;BME280;51878;55.748;48.742;2024-03-08T04:57:49;98311.53;;;-6.35;86.86
65280;BME280;51878;55.748;48.742;2024-03-08T05:02:51;98273.94;;;-6.63;86.13
65280;BME280;51878;55.748;48.742;2024-03-08T05:07:55;98271.41;;;-6.65;84.43
65280;BME280;51878;55.748;48.742;2024-03-08T05:12:57;98298.56;;;-6.38;87.01
65280;BME280;51878;55.748;48.742;2024-03-08T05:18:00;98232.22;;;-6.69;90.60
65280;BME280;51878;55.748;48.742;2024-03-08T05:23:02;98236.38;;;-6.54;90.50
65280;BME280;51878;55.748;48.742;2024-03-08T05:28:05;98254.09;;;-6.43;88.25
65280;BME280;51878;55.748;48.742;2024-03-08T05:33:07;98272.34;;;-6.16;87.03
65280;BME280;51878;55.748;48.742;2024-03-08T05:38:12;98260.09;;;-5.93;84.46
65280;BME280;51878;55.748;48.742;2024-03-08T05:43:15;98239.94;;;-5.94;80.68
65280;BME280;51878;55.748;48.742;2024-03-08T05:48:19;98250.00;;;-5.64;78.03
65280;BME280;51878;55.748;48.742;2024-03-08T05:53:21;98259.31;;;-5.47;76.40
65280;BME280;51878;55.748;48.742;2024-03-08T05:58:27;98248.25;;;-5.41;75.21
65280;BME280;51878;55.748;48.742;2024-03-08T06:03:35;98140.50;;;-6.05;74.19
65280;BME280;51878;55.748;48.742;2024-03-08T06:08:37;98244.34;;;-5.35;74.40
65280;BME280;51878;55.748;48.742;2024-03-08T06:13:40;98244.81;;;-5.30;73.95
65280;BME280;51878;55.748;48.742;2024-03-08T06:18:42;98207.56;;;-5.49;76.48
65280;BME280;51878;55.748;48.742;2024-03-08T06:23:46;98225.38;;;-5.29;74.70
65280;BME280;51878;55.748;48.742;2024-03-08T06:28:49;98223.22;;;-5.12;77.60
65280;BME280;51878;55.748;48.742;2024-03-08T06:33:53;98226.50;;;-4.97;82.08
65280;BME280;51878;55.748;48.742;2024-03-08T06:39:00;98229.84;;;-5.07;93.52
65280;BME280;51878;55.748;48.742;2024-03-08T06:44:08;98224.75;;;-5.32;100.00
65280;BME280;51878;55.748;48.742;2024-03-08T06:49:13;98221.91;;;-5.18;100.00
65280;BME280;51878;55.748;48.742;2024-03-08T06:54:15;98170.88;;;-5.19;100.00
65280;BME280;51878;55.748;48.742;2024-03-08T06:59:19;98204.22;;;-4.50;100.00
65280;BME280;51878;55.748;48.742;2024-03-08T07:04:23;98199.31;;;-4.66;100.00
65280;BME280;51878;55.748;48.742;2024-03-08T07:09:33;98197.41;;;-4.75;100.00
65280;BME280;51878;55.748;48.742;2024-03-08T07:14:40;98201.84;;;-4.53;100.00
65280;BME280;51878;55.748;48.742;2024-03-08T07:19:42;98201.75;;;-5.08;99.34
65280;BME280;51878;55.748;48.742;2024-03-08T07:24:45;98189.25;;;-5.06;100.00
65280;BME280;51878;55.748;48.742;2024-03-08T07:30:00;98064.63;;;-5.67;100.00
65280;BME280;51878;55.748;48.742;2024-03-08T07:35:06;98165.22;;;-4.80;100.00
65280;BME280;51878;55.748;48.742;2024-03-08T07:40:09;98153.94;;;-4.82;100.00
65280;BME280;51878;55.748;48.742;2024-03-08T07:45:11;98157.16;;;-4.90;100.00
65280;BME280;51878;55.748;48.742;2024-03-08T07:50:15;98183.59;;;-4.90;100.00
65280;BME280;51878;55.748;48.742;2024-03-08T07:55:18;98185.88;;;-4.96;100.00
65280;BME280;51878;55.748;48.742;2024-03-08T08:00:24;98173.75;;;-4.99;100.00
65280;BME280;51878;55.748;48.742;2024-03-08T08:05:35;98154.66;;;-4.91;100.00
65280;BME280;51878;55.748;48.742;2024-03-08T08:10:42;98094.72;;;-4.91;100.00
65280;BME280;51878;55.748;48.742;2024-03-08T08:15:45;98166.09;;;-4.36;100.00
65280;BME280;51878;55.748;48.742;2024-03-08T08:20:55;98107.25;;;-4.49;100.00
65280;BME280;51878;55.748;48.742;2024-03-08T08:25:57;98025.91;;;-4.89;100.00
65280;BME280;51878;55.748;48.742;2024-03-08T08:30:59;98090.81;;;-4.32;100.00
65280;BME280;51878;55.748;48.742;2024-03-08T08:36:02;98101.16;;;-4.29;100.00
65280;BME280;51878;55.748;48.742;2024-03-08T08:41:05;98014.00;;;-4.95;100.00
65280;BME280;51878;55.748;48.742;2024-03-08T08:46:08;98137.75;;;-4.13;100.00
65280;BME280;51878;55.748;48.742;2024-03-08T08:51:11;98037.31;;;-4.89;100.00
65280;BME280;51878;55.748;48.742;2024-03-08T08:56:17;98091.53;;;-4.09;100.00
65280;BME280;51878;55.748;48.742;2024-03-08T09:01:20;98119.44;;;-3.63;100.00
65280;BME280;51878;55.748;48.742;2024-03-08T09:06:23;98110.09;;;-3.36;100.00
65280;BME280;51878;55.748;48.742;2024-03-08T09:11:26;98128.66;;;-3.05;100.00
65280;BME280;51878;55.748;48.742;2024-03-08T09:16:29;98127.31;;;-2.90;98.65
65280;BME280;51878;55.748;48.742;2024-03-08T09:21:31;98062.63;;;-3.18;93.43
65280;BME280;51878;55.748;48.742;2024-03-08T09:26:33;98075.34;;;-3.12;89.82
65280;BME280;51878;55.748;48.742;2024-03-08T09:31:36;98067.88;;;-3.28;83.03
65280;BME280;51878;55.748;48.742;2024-03-08T09:36:40;98090.41;;;-3.03;87.34
65280;BME280;51878;55.748;48.742;2024-03-08T09:41:43;98093.13;;;-2.93;82.58
65280;BME280;51878;55.748;48.742;2024-03-08T09:46:46;98074.91;;;-3.17;83.92
65280;BME280;51878;55.748;48.742;2024-03-08T09:51:53;98055.03;;;-3.33;85.68
65280;BME280;51878;55.748;48.742;2024-03-08T09:56:56;98090.00;;;-3.08;85.30
65280;BME280;51878;55.748;48.742;2024-03-08T10:01:58;98064.25;;;-3.27;87.53
65280;BME280;51878;55.748;48.742;2024-03-08T10:07:04;98042.56;;;-3.51;85.00
65280;BME280;51878;55.748;48.742;2024-03-08T10:12:09;98062.84;;;-3.62;88.45
65280;BME280;51878;55.748;48.742;2024-03-08T10:17:12;98082.38;;;-3.63;89.08
65280;BME280;51878;55.748;48.742;2024-03-08T10:22:15;98084.25;;;-3.75;92.34
65280;BME280;51878;55.748;48.742;2024-03-08T10:27:18;98080.44;;;-3.61;94.80
65280;BME280;51878;55.748;48.742;2024-03-08T10:32:20;98039.53;;;-3.99;96.65
65280;BME280;51878;55.748;48.742;2024-03-08T10:37:22;98079.88;;;-3.85;98.09
65280;BME280;51878;55.748;48.742;2024-03-08T10:42:28;98031.84;;;-4.23;99.22
65280;BME280;51878;55.748;48.742;2024-03-08T10:47:31;98092.06;;;-3.94;100.00
65280;BME280;51878;55.748;48.742;2024-03-08T10:52:39;98095.28;;;-4.11;100.00
65280;BME280;51878;55.748;48.742;2024-03-08T10:57:42;98092.88;;;-4.15;100.00
65280;BME280;51878;55.748;48.742;2024-03-08T11:02:45;98096.91;;;-4.20;100.00
65280;BME280;51878;55.748;48.742;2024-03-08T11:07:50;98037.56;;;-4.60;100.00
65280;BME280;51878;55.748;48.742;2024-03-08T11:12:53;98094.53;;;-4.23;100.00
65280;BME280;51878;55.748;48.742;2024-03-08T11:17:58;98095.47;;;-4.24;100.00
65280;BME280;51878;55.748;48.742;2024-03-08T11:23:04;98083.72;;;-4.31;100.00
65280;BME280;51878;55.748;48.742;2024-03-08T11:28:13;98092.22;;;-4.28;100.00
65280;BME280;51878;55.748;48.742;2024-03-08T11:33:19;98082.91;;;-4.43;100.00
65280;BME280;51878;55.748;48.742;2024-03-08T11:38:22;98030.00;;;-4.64;100.00
65280;BME280;51878;55.748;48.742;2024-03-08T11:43:24;98103.06;;;-4.31;100.00
65280;BME280;51878;55.748;48.742;2024-03-08T11:48:30;98051.75;;;-4.72;100.00
65280;BME280;51878;55.748;48.742;2024-03-08T11:53:33;98072.59;;;-4.46;100.00
65280;BME280;51878;55.748;48.742;2024-03-08T11:58:40;98079.91;;;-4.39;100.00
65280;BME280;51878;55.748;48.742;2024-03-08T12:03:43;98071.38;;;-4.42;100.00
65280;BME280;51878;55.748;48.742;2024-03-08T12:08:48;97966.03;;;-5.11;100.00
65280;BME280;51878;55.748;48.742;2024-03-08T12:13:53;98075.84;;;-4.43;100.00
65280;BME280;51878;55.748;48.742;2024-03-08T12:18:56;98033.16;;;-4.70;100.00
65280;BME280;51878;55.748;48.742;2024-03-08T12:29:24;98085.28;;;-4.29;100.00
65280;BME280;51878;55.748;48.742;2024-03-08T12:34:29;98004.34;;;-4.73;100.00
65280;BME280;51878;55.748;48.742;2024-03-08T12:39:34;98064.94;;;-4.28;100.00
65280;BME280;51878;55.748;48.742;2024-03-08T12:44:36;98079.31;;;-4.21;100.00
65280;BME280;51878;55.748;48.742;2024-03-08T12:49:45;98040.19;;;-4.60;100.00
65280;BME280;51878;55.748;48.742;2024-03-08T12:54:47;98068.84;;;-4.44;100.00
65280;BME280;51878;55.748;48.742;2024-03-08T12:59:51;98079.53;;;-4.34;100.00
65280;BME280;51878;55.748;48.742;2024-03-08T13:04:56;98038.66;;;-4.62;100.00
65280;BME280;51878;55.748;48.742;2024-03-08T13:09:59;98072.31;;;-4.43;100.00
65280;BME280;51878;55.748;48.742;2024-03-08T13:15:04;98032.44;;;-4.72;100.00
65280;BME280;51878;55.748;48.742;2024-03-08T13:20:08;98076.44;;;-4.50;100.00
65280;BME280;51878;55.748;48.742;2024-03-08T13:25:11;98064.06;;;-4.50;100.00
65280;BME280;51878;55.748;48.742;2024-03-08T13:30:15;98057.56;;;-4.46;100.00
65280;BME280;51878;55.748;48.742;2024-03-08T13:35:20;98054.47;;;-4.51;100.00
65280;BME280;51878;55.748;48.742;2024-03-08T13:40:31;98088.31;;;-4.33;100.00
65280;BME280;51878;55.748;48.742;2024-03-08T13:45:35;98078.94;;;-4.38;100.00
65280;BME280;51878;55.748;48.742;2024-03-08T13:50:43;98091.44;;;-4.40;100.00
65280;BME280;51878;55.748;48.742;2024-03-08T13:55:45;98093.88;;;-4.48;100.00
65280;BME280;51878;55.748;48.742;2024-03-08T14:00:47;98078.75;;;-4.57;100.00
65280;BME280;51878;55.748;48.742;2024-03-08T14:05:50;98093.53;;;-4.54;100.00
65280;BME280;51878;55.748;48.742;2024-03-08T14:10:52;98084.91;;;-4.68;100.00
65280;BME280;51878;55.748;48.742;2024-03-08T14:15:55;98075.94;;;-4.77;100.00
65280;BME280;51878;55.748;48.742;2024-03-08T14:20:58;98101.13;;;-4.61;100.00
65280;BME280;51878;55.748;48.742;2024-03-08T14:26:01;98096.38;;;-4.79;100.00
65280;BME280;51878;55.748;48.742;2024-03-08T14:31:04;98102.28;;;-4.86;100.00
65280;BME280;51878;55.748;48.742;2024-03-08T14:36:13;98084.28;;;-5.04;100.00
65280;BME280;51878;55.748;48.742;2024-03-08T14:41:15;98090.41;;;-5.03;100.00
65280;BME280;51878;55.748;48.742;2024-03-08T14:46:20;98092.13;;;-5.13;100.00
65280;BME280;51878;55.748;48.742;2024-03-08T14:51:25;98043.03;;;-5.50;100.00
65280;BME280;51878;55.748;48.742;2024-03-08T14:56:30;98073.88;;;-5.28;100.00
65280;BME280;51878;55.748;48.742;2024-03-08T15:01:33;98089.50;;;-5.25;100.00
65280;BME280;51878;55.748;48.742;2024-03-08T15:06:38;98083.13;;;-5.33;100.00
65280;BME280;51878;55.748;48.742;2024-03-08T15:11:41;98095.72;;;-5.26;100.00
65280;BME280;51878;55.748;48.742;2024-03-08T15:16:45;98074.00;;;-5.41;100.00
65280;BME280;51878;55.748;48.742;2024-03-08T15:21:49;98099.91;;;-5.34;100.00
65280;BME280;51878;55.748;48.742;2024-03-08T15:26:52;97993.53;;;-6.03;100.00
65280;BME280;51878;55.748;48.742;2024-03-08T15:31:57;98086.63;;;-5.44;100.00
65280;BME280;51878;55.748;48.742;2024-03-08T15:36:59;98069.44;;;-5.61;100.00
65280;BME280;51878;55.748;48.742;2024-03-08T15:42:04;98039.06;;;-5.78;100.00
65280;BME280;51878;55.748;48.742;2024-03-08T15:47:07;98094.91;;;-5.49;100.00
65280;BME280;51878;55.748;48.742;2024-03-08T15:52:13;98044.72;;;-5.83;100.00
65280;BME280;51878;55.748;48.742;2024-03-08T15:57:15;98058.78;;;-5.71;100.00
65280;BME280;51878;55.748;48.742;2024-03-08T16:02:20;98078.66;;;-5.67;100.00
65280;BME280;51878;55.748;48.742;2024-03-08T16:07:25;98097.16;;;-5.55;100.00
65280;BME280;51878;55.748;48.742;2024-03-08T16:12:28;98094.16;;;-5.51;100.00
65280;BME280;51878;55.748;48.742;2024-03-08T16:17:31;98060.91;;;-5.65;100.00
65280;BME280;51878;55.748;48.742;2024-03-08T16:22:33;98104.47;;;-5.36;100.00
65280;BME280;51878;55.748;48.742;2024-03-08T16:27:41;98093.19;;;-5.38;100.00
65280;BME280;51878;55.748;48.742;2024-03-08T16:32:44;98104.72;;;-5.28;100.00
65280;BME280;51878;55.748;48.742;2024-03-08T16:37:54;98077.13;;;-5.35;100.00
65280;BME280;51878;55.748;48.742;2024-03-08T16:42:58;98096.81;;;-5.28;100.00
65280;BME280;51878;55.748;48.742;2024-03-08T16:48:00;98087.06;;;-5.28;100.00
65280;BME280;51878;55.748;48.742;2024-03-08T16:53:05;98073.25;;;-5.31;100.00
65280;BME280;51878;55.748;48.742;2024-03-08T16:58:07;98064.75;;;-5.35;100.00
65280;BME280;51878;55.748;48.742;2024-03-08T17:03:17;98083.50;;;-5.27;100.00
65280;BME280;51878;55.748;48.742;2024-03-08T17:08:19;98074.25;;;-5.32;100.00
65280;BME280;51878;55.748;48.742;2024-03-08T17:13:23;98057.78;;;-5.36;100.00
65280;BME280;51878;55.748;48.742;2024-03-08T17:18:26;98048.78;;;-5.45;100.00
65280;BME280;51878;55.748;48.742;2024-03-08T17:23:36;98077.47;;;-5.17;100.00
65280;BME280;51878;55.748;48.742;2024-03-08T17:28:39;98075.91;;;-5.20;100.00
65280;BME280;51878;55.748;48.742;2024-03-08T17:33:49;98061.88;;;-5.32;100.00
65280;BME280;51878;55.748;48.742;2024-03-08T17:38:52;98064.63;;;-5.22;100.00
65280;BME280;51878;55.748;48.742;2024-03-08T17:43:59;98060.66;;;-5.16;100.00
65280;BME280;51878;55.748;48.742;2024-03-08T17:49:01;98026.72;;;-5.44;100.00
65280;BME280;51878;55.748;48.742;2024-03-08T17:54:06;98064.13;;;-5.16;100.00
65280;BME280;51878;55.748;48.742;2024-03-08T17:59:09;98028.16;;;-5.40;100.00
65280;BME280;51878;55.748;48.742;2024-03-08T18:04:14;97998.06;;;-5.59;100.00
65280;BME280;51878;55.748;48.742;2024-03-08T18:09:17;98039.06;;;-5.33;100.00
65280;BME280;51878;55.748;48.742;2024-03-08T18:14:25;98083.69;;;-5.07;100.00
65280;BME280;51878;55.748;48.742;2024-03-08T18:19:28;98048.28;;;-5.27;100.00
65280;BME280;51878;55.748;48.742;2024-03-08T18:24:35;98096.78;;;-5.06;100.00
65280;BME280;51878;55.748;48.742;2024-03-08T18:29:37;98091.59;;;-5.07;100.00
65280;BME280;51878;55.748;48.742;2024-03-08T18:34:42;98029.72;;;-5.48;100.00
65280;BME280;51878;55.748;48.742;2024-03-08T18:39:46;97996.00;;;-5.56;100.00
65280;BME280;51878;55.748;48.742;2024-03-08T18:44:48;98031.16;;;-5.33;100.00
65280;BME280;51878;55.748;48.742;2024-03-08T18:49:53;98028.13;;;-5.28;100.00
65280;BME280;51878;55.748;48.742;2024-03-08T18:54:56;98074.56;;;-5.03;100.00
65280;BME280;51878;55.748;48.742;2024-03-08T19:00:10;98032.22;;;-5.24;100.00
65280;BME280;51878;55.748;48.742;2024-03-08T19:05:16;97952.97;;;-5.79;100.00
65280;BME280;51878;55.748;48.742;2024-03-08T19:10:20;98010.38;;;-5.26;100.00
65280;BME280;51878;55.748;48.742;2024-03-08T19:15:24;98022.94;;;-5.19;100.00
65280;BME280;51878;55.748;48.742;2024-03-08T19:20:29;98062.19;;;-4.91;100.00
65280;BME280;51878;55.748;48.742;2024-03-08T19:25:36;98028.34;;;-5.09;100.00
65280;BME280;51878;55.748;48.742;2024-03-08T19:30:43;97970.47;;;-5.55;100.00
65280;BME280;51878;55.748;48.742;2024-03-08T19:35:45;97990.56;;;-5.32;100.00
65280;BME280;51878;55.748;48.742;2024-03-08T19:40:48;98021.50;;;-5.11;100.00
65280;BME280;51878;55.748;48.742;2024-03-08T19:45:53;98063.72;;;-4.89;100.00
65280;BME280;51878;55.748;48.742;2024-03-08T19:50:56;98050.16;;;-4.95;100.00
65280;BME280;51878;55.748;48.742;2024-03-08T19:56:05;98039.88;;;-5.10;100.00
65280;BME280;51878;55.748;48.742;2024-03-08T20:01:08;97977.16;;;-5.51;100.00
65280;BME280;51878;55.748;48.742;2024-03-08T20:06:11;98026.28;;;-5.05;100.00
65280;BME280;51878;55.748;48.742;2024-03-08T20:11:13;98063.59;;;-4.87;100.00
65280;BME280;51878;55.748;48.742;2024-03-08T20:16:21;98014.88;;;-5.06;100.00
65280;BME280;51878;55.748;48.742;2024-03-08T20:21:26;98043.06;;;-4.95;100.00
65280;BME280;51878;55.748;48.742;2024-03-08T20:26:32;98017.53;;;-5.06;100.00
65280;BME280;51878;55.748;48.742;2024-03-08T20:31:34;98044.47;;;-4.80;100.00
65280;BME280;51878;55.748;48.742;2024-03-08T20:36:36;98028.53;;;-4.89;100.00
65280;BME280;51878;55.748;48.742;2024-03-08T20:41:39;98032.34;;;-4.82;100.00
65280;BME280;51878;55.748;48.742;2024-03-08T20:46:42;98032.19;;;-4.69;100.00
65280;BME280;51878;55.748;48.742;2024-03-08T20:51:45;98027.63;;;-4.67;100.00
65280;BME280;51878;55.748;48.742;2024-03-08T20:56:47;97981.59;;;-4.97;100.00
65280;BME280;51878;55.748;48.742;2024-03-08T21:01:49;97946.91;;;-5.04;100.00
65280;BME280;51878;55.748;48.742;2024-03-08T21:06:53;98028.69;;;-4.38;100.00
65280;BME280;51878;55.748;48.742;2024-03-08T21:11:59;98030.81;;;-4.31;100.00
65280;BME280;51878;55.748;48.742;2024-03-08T21:17:01;98031.16;;;-4.25;100.00
65280;BME280;51878;55.748;48.742;2024-03-08T21:22:04;97951.00;;;-4.58;100.00
65280;BME280;51878;55.748;48.742;2024-03-08T21:27:06;97987.47;;;-4.40;100.00
65280;BME280;51878;55.748;48.742;2024-03-08T21:32:10;97985.38;;;-4.37;100.00
65280;BME280;51878;55.748;48.742;2024-03-08T21:37:13;97902.34;;;-4.76;100.00
65280;BME280;51878;55.748;48.742;2024-03-08T21:42:16;97980.94;;;-4.36;100.00
65280;BME280;51878;55.748;48.742;2024-03-08T21:47:19;97985.97;;;-4.33;100.00
65280;BME280;51878;55.748;48.742;2024-03-08T21:52:23;98015.63;;;-4.08;100.00
65280;BME280;51878;55.748;48.742;2024-03-08T21:57:25;98033.66;;;-4.02;100.00
65280;BME280;51878;55.748;48.742;2024-03-08T22:02:30;98003.63;;;-4.12;100.00
65280;BME280;51878;55.748;48.742;2024-03-08T22:07:32;98017.78;;;-4.02;100.00
65280;BME280;51878;55.748;48.742;2024-03-08T22:12:37;98018.59;;;-4.02;100.00
65280;BME280;51878;55.748;48.742;2024-03-08T22:17:41;97999.38;;;-4.04;100.00
65280;BME280;51878;55.748;48.742;2024-03-08T22:22:43;98024.53;;;-3.88;100.00
65280;BME280;51878;55.748;48.742;2024-03-08T22:27:47;98008.59;;;-3.98;100.00
65280;BME280;51878;55.748;48.742;2024-03-08T22:32:51;98018.16;;;-4.07;100.00
65280;BME280;51878;55.748;48.742;2024-03-08T22:37:56;97884.19;;;-4.81;100.00
65280;BME280;51878;55.748;48.742;2024-03-08T22:42:58;98024.09;;;-3.93;100.00
65280;BME280;51878;55.748;48.742;2024-03-08T22:48:00;97961.78;;;-4.28;100.00
65280;BME280;51878;55.748;48.742;2024-03-08T22:53:02;98017.34;;;-4.07;100.00
65280;BME280;51878;55.748;48.742;2024-03-08T22:58:05;97964.19;;;-4.25;100.00
65280;BME280;51878;55.748;48.742;2024-03-08T23:03:07;97997.06;;;-4.18;100.00
65280;BME280;51878;55.748;48.742;2024-03-08T23:08:12;97991.34;;;-4.23;100.00
65280;BME280;51878;55.748;48.742;2024-03-08T23:13:15;98002.75;;;-4.44;100.00
65280;BME280;51878;55.748;48.742;2024-03-08T23:18:18;98013.59;;;-4.47;100.00
65280;BME280;51878;55.748;48.742;2024-03-08T23:23:22;97996.03;;;-4.69;100.00
65280;BME280;51878;55.748;48.742;2024-03-08T23:28:24;98003.69;;;-4.66;100.00
65280;BME280;51878;55.748;48.742;2024-03-08T23:33:26;97994.59;;;-4.73;100.00
65280;BME280;51878;55.748;48.742;2024-03-08T23:38:29;98000.72;;;-4.72;100.00
65280;BME280;51878;55.748;48.742;2024-03-08T23:43:32;97997.34;;;-4.74;100.00
65280;BME280;51878;55.748;48.742;2024-03-08T23:48:37;98004.00;;;-4.59;100.00
65280;BME280;51878;55.748;48.742;2024-03-08T23:53:39;98004.94;;;-4.49;100.00
65280;BME280;51878;55.748;48.742;2024-03-08T23:58:42;97957.59;;;-4.73;100.00
